Main page
METAR-TAF:

METAR-TAF

Airports :

Kristianstad Airport

Kristianstad, Sweden

latitude: 55-55N, longitude: 014-05E, elevation: 23 m

Current weather observation

The report was made 41 minutes ago, at 23:50 UTC
Wind 6 kt from the West
Temperature 12°C
Humidity 82%
Pressure 1017 hPa
Visibility 10 km or more

METAR: ESMK 192350Z AUTO 27006KT 9999 OVC030/// 12/09 Q1017

Time: 02:31 (00:31 UTC)

Forecast

The report was made 13 hours and 30 minutes ago, at 11:01 UTC
Forecast valid from 19 at 12 UTC to 19 at 15 UTC
Wind 12 kt from the West/Northwest
Visibility 10 km or more
Broken clouds at a height of 4000 ft

TAF: ESMK 191101Z 1912/1915 29012KT 9999 BKN040

Weather observations and forecasts of more than 4000 airports (METAR and TAF reports).

The available stations are represented by yellow and red dots on the map.

Hover mouse over dot to see the name of the station.

Then click to see weather observations and forecasts.

To change the map : click on the green buttons with a black cross to zoom in, on the green button with a dash to zoom out, or on the green arrows for adjacent maps.


METAR-TAF: